Paul, Alabama
Current Conditions -  °F | °C
As of 6:30 AM on Monday 24 Nov 2014 (Local Time) from KGZH Reporting Station
Haze Haze  
Wind Chill: 66°   Ceiling: 1200
Heat Index: 66°   Visibility: 6mi
Dew Point: 64°   Wind: 6mph
Humidity: 93%   Direction: 220°SW
Pressure: 29.81"   Gusts: NA
Location:  31.32°N, 86.7439°W
Report Text: KGZH 241230Z AUTO 22005KT 6SM BR BKN012 19/18 A2981 RMK AO2 T01890178
Loading
Personal Weather Stations






























Interactive Weather Map New forecast layout! Learn more

10-Day Weather Forecast

Advertisements
Track Severe Weather on mobile